createdAt,value
2019-03-17T00:02:34.967Z,1.37
2019-03-17T00:05:15.872Z,1.53
2019-03-17T00:07:56.911Z,1.40
2019-03-17T00:10:37.268Z,1.37
2019-03-17T00:13:18.625Z,1.20
2019-03-17T00:16:00.192Z,1.40
2019-03-17T00:18:41.392Z,2.30
2019-03-17T00:21:22.027Z,1.60
2019-03-17T00:24:02.606Z,1.13
2019-03-17T00:26:43.834Z,1.90
2019-03-17T00:29:24.724Z,1.40
2019-03-17T00:32:05.291Z,1.33
2019-03-17T00:34:46.034Z,1.30
2019-03-17T00:37:26.752Z,1.50
2019-03-17T00:40:07.958Z,1.93
2019-03-17T00:42:48.965Z,1.63
2019-03-17T00:45:29.651Z,2.27
2019-03-17T00:48:10.480Z,1.70
2019-03-17T00:50:51.113Z,1.57
2019-03-17T00:53:32.065Z,1.80
2019-03-17T00:56:01.150Z,1.73
2019-03-17T00:58:49.631Z,1.60
2019-03-17T01:01:37.839Z,1.80
2019-03-17T01:04:26.454Z,1.57
2019-03-17T01:07:14.639Z,1.80
2019-03-17T01:10:02.846Z,1.50
2019-03-17T01:12:51.101Z,1.33
2019-03-17T01:15:39.610Z,1.37
2019-03-17T01:18:27.810Z,2.17
2019-03-17T01:21:16.311Z,2.00
2019-03-17T01:24:04.516Z,1.93
2019-03-17T01:26:52.995Z,1.40
2019-03-17T01:29:41.209Z,2.03
2019-03-17T01:32:30.106Z,1.63
2019-03-17T01:35:18.662Z,1.50
2019-03-17T01:38:07.203Z,1.40
2019-03-17T01:40:55.780Z,1.90
2019-03-17T01:43:44.242Z,1.70
2019-03-17T01:46:32.443Z,1.60
2019-03-17T01:49:20.903Z,1.67
2019-03-17T01:52:09.121Z,1.43
2019-03-17T01:54:57.332Z,1.20
2019-03-17T01:57:45.535Z,1.60
2019-03-17T02:00:33.805Z,1.33
2019-03-17T02:03:22.017Z,1.53
2019-03-17T02:06:10.211Z,1.30
2019-03-17T02:08:58.479Z,1.30
2019-03-17T02:11:47.144Z,1.10
2019-03-17T02:17:29.597Z,1.10
2019-03-17T02:20:17.803Z,1.37
2019-03-17T02:23:06.007Z,1.00
2019-03-17T02:25:54.197Z,1.33
2019-03-17T02:28:42.394Z,1.37
2019-03-17T02:31:30.904Z,1.63
2019-03-17T02:34:00.301Z,1.60
2019-03-17T02:36:29.379Z,0.80
2019-03-17T02:39:17.675Z,0.90
2019-03-17T02:42:05.861Z,0.93
2019-03-17T02:44:54.089Z,1.23
2019-03-17T02:47:42.631Z,3.00
2019-03-17T02:50:30.849Z,1.40
2019-03-17T02:53:19.071Z,1.20
2019-03-17T02:56:07.392Z,1.50
2019-03-17T02:58:55.602Z,1.20
2019-03-17T03:01:43.791Z,1.10
2019-03-17T03:04:32.007Z,1.30
2019-03-17T03:07:20.199Z,1.13
2019-03-17T03:10:08.508Z,1.27
2019-03-17T03:12:57.024Z,0.90
2019-03-17T03:15:45.318Z,1.50
2019-03-17T03:18:26.467Z,1.30
2019-03-17T03:21:06.952Z,1.53
2019-03-17T03:23:47.775Z,1.20
2019-03-17T03:26:28.745Z,1.27
2019-03-17T03:29:09.729Z,1.37
2019-03-17T03:31:50.831Z,1.47
2019-03-17T03:34:31.613Z,1.40
2019-03-17T03:37:12.994Z,1.43
2019-03-17T03:39:53.405Z,1.50
2019-03-17T03:42:34.428Z,1.30
2019-03-17T03:45:15.261Z,1.47
2019-03-17T03:47:56.098Z,1.50
2019-03-17T03:50:36.908Z,2.10
2019-03-17T03:53:17.709Z,1.40
2019-03-17T03:55:58.659Z,1.63
2019-03-17T03:58:39.556Z,1.80
2019-03-17T04:01:20.730Z,1.33
2019-03-17T04:04:02.047Z,1.73
2019-03-17T04:06:42.871Z,2.27
2019-03-17T04:09:23.609Z,1.40
2019-03-17T04:12:03.997Z,1.57
2019-03-17T04:14:45.160Z,1.80
2019-03-17T04:17:26.159Z,1.37
2019-03-17T04:20:07.343Z,1.40
2019-03-17T04:22:48.602Z,1.53
2019-03-17T04:25:29.435Z,1.23
2019-03-17T04:28:10.734Z,1.77
2019-03-17T04:30:51.596Z,1.23
2019-03-17T04:33:32.444Z,1.30
2019-03-17T04:36:13.338Z,1.23
2019-03-17T04:38:53.993Z,1.67
2019-03-17T04:41:34.707Z,1.20
2019-03-17T04:44:20.867Z,1.33
2019-03-17T04:46:58.088Z,2.00
2019-03-17T04:49:39.057Z,1.60
2019-03-17T04:52:19.971Z,1.83
2019-03-17T04:55:00.958Z,1.43
2019-03-17T04:57:41.776Z,1.90
2019-03-17T05:00:22.901Z,1.60
2019-03-17T05:03:03.652Z,1.50
2019-03-17T05:05:45.123Z,2.00
2019-03-17T05:08:25.737Z,1.77
2019-03-17T05:11:06.682Z,2.13
2019-03-17T05:13:47.674Z,1.93
2019-03-17T05:16:28.643Z,1.57
2019-03-17T05:19:09.408Z,1.23
2019-03-17T05:21:50.200Z,2.00
2019-03-17T05:24:30.998Z,1.93
2019-03-17T05:27:12.337Z,1.80
2019-03-17T05:29:53.312Z,1.60
2019-03-17T05:32:34.052Z,1.60
2019-03-17T05:35:15.060Z,1.93
2019-03-17T05:37:55.807Z,2.00
2019-03-17T05:40:36.562Z,1.80
2019-03-17T05:43:17.535Z,2.33
2019-03-17T05:45:58.328Z,1.50
2019-03-17T05:48:39.094Z,1.70
2019-03-17T05:51:19.843Z,1.70
2019-03-17T05:54:00.908Z,1.53
2019-03-17T05:56:41.580Z,2.53
2019-03-17T05:59:22.588Z,1.53
2019-03-17T06:02:03.100Z,1.47
2019-03-17T06:04:43.977Z,1.50
2019-03-17T06:07:25.012Z,1.80
2019-03-17T06:10:05.948Z,1.73
2019-03-17T06:12:46.991Z,1.80
2019-03-17T06:15:28.152Z,2.00
2019-03-17T06:18:09.119Z,1.67
2019-03-17T06:20:50.297Z,1.90
2019-03-17T06:23:30.868Z,1.70
2019-03-17T06:26:11.783Z,1.67
2019-03-17T06:28:52.582Z,1.60
2019-03-17T06:31:33.594Z,1.70
2019-03-17T06:34:14.332Z,2.20
2019-03-17T06:36:55.403Z,1.80
2019-03-17T06:39:36.259Z,2.07
2019-03-17T06:42:17.242Z,1.70
2019-03-17T06:44:57.699Z,2.00
2019-03-17T06:47:38.391Z,1.47
2019-03-17T06:50:19.455Z,1.50
2019-03-17T06:53:00.782Z,1.73
2019-03-17T06:55:41.741Z,1.80
2019-03-17T06:58:22.435Z,2.00
2019-03-17T07:01:03.255Z,1.83
2019-03-17T07:03:44.005Z,1.83
2019-03-17T07:06:24.627Z,1.70
2019-03-17T07:09:05.439Z,2.03
2019-03-17T07:11:46.276Z,2.47
2019-03-17T07:14:26.826Z,1.73
2019-03-17T07:17:07.686Z,1.90
2019-03-17T07:19:48.763Z,1.77
2019-03-17T07:22:29.300Z,2.20
2019-03-17T07:25:10.451Z,2.77
2019-03-17T07:27:51.385Z,2.43
2019-03-17T07:30:32.163Z,2.10
2019-03-17T07:33:12.995Z,1.90
2019-03-17T07:35:53.599Z,2.40
2019-03-17T07:38:34.932Z,3.80
2019-03-17T07:41:15.701Z,3.27
2019-03-17T07:43:56.703Z,4.10
2019-03-17T07:46:38.392Z,2.60
2019-03-17T07:49:19.315Z,3.17
2019-03-17T07:52:03.103Z,3.00
2019-03-17T07:54:43.581Z,2.00
2019-03-17T07:57:24.479Z,2.10
2019-03-17T08:00:05.575Z,3.00
2019-03-17T08:02:46.544Z,3.10
2019-03-17T08:05:27.273Z,2.17
2019-03-17T08:08:09.620Z,3.20
2019-03-17T08:10:50.303Z,2.30
2019-03-17T08:13:31.072Z,2.70
2019-03-17T08:16:12.108Z,2.60
2019-03-17T08:18:53.843Z,2.40
2019-03-17T08:21:34.643Z,3.00
2019-03-17T08:24:15.283Z,3.13
2019-03-17T08:26:56.504Z,2.17
2019-03-17T08:29:37.191Z,2.33
2019-03-17T08:32:18.445Z,2.30
2019-03-17T08:34:59.183Z,2.73
2019-03-17T08:37:39.852Z,3.03
2019-03-17T08:40:20.530Z,2.53
2019-03-17T08:43:01.732Z,2.50
2019-03-17T08:45:42.306Z,3.10
2019-03-17T08:48:22.899Z,3.27
2019-03-17T08:51:04.129Z,2.30
2019-03-17T08:53:45.033Z,2.60
2019-03-17T08:56:25.896Z,2.70
2019-03-17T08:59:07.216Z,2.40
2019-03-17T09:01:48.183Z,2.40
2019-03-17T09:04:29.163Z,2.20
2019-03-17T09:07:10.103Z,2.47
2019-03-17T09:09:50.751Z,2.40
2019-03-17T09:12:31.299Z,2.03
2019-03-17T09:15:11.870Z,2.20
2019-03-17T09:17:52.699Z,2.43
2019-03-17T09:20:33.370Z,2.50
2019-03-17T09:23:14.037Z,2.23
2019-03-17T09:25:54.980Z,2.57
2019-03-17T09:28:35.460Z,2.63
2019-03-17T09:31:16.898Z,2.50
2019-03-17T09:33:57.381Z,2.23
2019-03-17T09:39:21.736Z,2.17
2019-03-17T09:42:02.571Z,2.30
2019-03-17T09:44:43.442Z,1.90
2019-03-17T09:47:24.687Z,1.80
2019-03-17T09:50:05.204Z,2.23
2019-03-17T09:55:45.353Z,2.10
2019-03-17T09:58:26.723Z,2.30
2019-03-17T10:01:07.287Z,2.37
2019-03-17T10:03:48.211Z,3.23
2019-03-17T10:06:29.000Z,2.30
2019-03-17T10:09:10.224Z,2.37
2019-03-17T10:11:39.621Z,2.43
2019-03-17T10:14:28.005Z,4.30
2019-03-17T10:17:16.229Z,3.30
2019-03-17T10:20:04.629Z,2.93
2019-03-17T10:22:45.876Z,3.13
2019-03-17T10:25:27.181Z,2.70
2019-03-17T10:28:08.170Z,2.73
2019-03-17T10:30:48.900Z,2.90
2019-03-17T10:33:29.865Z,3.07
2019-03-17T10:36:10.884Z,3.07
2019-03-17T10:38:52.267Z,3.43
2019-03-17T10:41:33.509Z,5.57
2019-03-17T10:44:14.188Z,4.60
2019-03-17T10:46:54.688Z,4.30
2019-03-17T10:49:35.868Z,3.57
2019-03-17T10:52:16.593Z,3.37
2019-03-17T10:54:58.212Z,3.80
2019-03-17T10:57:39.533Z,4.40
2019-03-17T11:00:20.320Z,3.70
2019-03-17T11:03:02.010Z,4.13
2019-03-17T11:05:42.432Z,4.17
2019-03-17T11:08:23.120Z,4.00
2019-03-17T11:11:03.935Z,4.77
2019-03-17T11:13:45.268Z,4.20
2019-03-17T11:16:26.191Z,2.83
2019-03-17T11:19:06.988Z,3.77
2019-03-17T11:21:46.271Z,4.57
2019-03-17T11:24:34.483Z,4.20
2019-03-17T11:27:23.531Z,4.20
2019-03-17T11:30:11.857Z,3.57
2019-03-17T11:33:00.081Z,4.40
2019-03-17T11:35:48.285Z,3.90
2019-03-17T11:38:36.508Z,4.33
2019-03-17T11:41:24.801Z,3.67
2019-03-17T11:44:13.304Z,3.30
2019-03-17T11:47:01.587Z,3.03
2019-03-17T11:49:49.787Z,2.60
2019-03-17T11:52:38.020Z,4.23
2019-03-17T11:55:26.223Z,3.10
2019-03-17T11:58:14.447Z,0.50
2019-03-17T12:01:02.716Z,0.40
2019-03-17T12:03:50.931Z,0.30
2019-03-17T12:06:39.163Z,0.30
2019-03-17T12:09:29.258Z,9.83
2019-03-17T12:12:17.892Z,0.53
2019-03-17T12:15:06.759Z,0.63
2019-03-17T12:17:55.249Z,0.53
2019-03-17T12:20:43.708Z,0.40
2019-03-17T12:23:24.740Z,0.50
2019-03-17T12:25:55.056Z,4.70
2019-03-17T12:28:44.376Z,2.87
2019-03-17T12:31:32.616Z,0.40
2019-03-17T12:34:28.210Z,0.80
2019-03-17T12:37:10.764Z,1.00
2019-03-17T12:40:02.695Z,0.20
2019-03-17T12:42:49.191Z,0.30
2019-03-17T12:45:37.411Z,0.53
2019-03-17T12:48:26.523Z,0.30
2019-03-17T12:51:14.744Z,0.50
2019-03-17T12:54:02.952Z,0.20
2019-03-17T12:56:51.164Z,0.40
2019-03-17T12:59:39.636Z,0.50
2019-03-17T13:02:28.091Z,0.70
2019-03-17T13:05:16.318Z,0.70
2019-03-17T13:08:04.516Z,0.40
2019-03-17T13:10:52.992Z,0.77
2019-03-17T13:13:41.452Z,0.30
2019-03-17T13:16:29.932Z,0.67
2019-03-17T13:19:18.388Z,0.37
2019-03-17T13:21:58.900Z,0.47
2019-03-17T13:24:39.536Z,0.60
2019-03-17T13:27:20.327Z,0.50
2019-03-17T13:30:01.643Z,0.73
2019-03-17T13:32:42.839Z,0.40
2019-03-17T13:35:12.252Z,0.57
2019-03-17T13:37:41.366Z,0.30
2019-03-17T13:40:30.346Z,0.50
2019-03-17T13:43:18.984Z,0.37
2019-03-17T13:46:07.196Z,0.43
2019-03-17T13:48:36.576Z,0.77
2019-03-17T13:51:24.788Z,0.53
2019-03-17T13:54:12.994Z,0.40
2019-03-17T13:57:01.203Z,0.40
2019-03-17T13:59:49.396Z,0.50
2019-03-17T14:02:37.879Z,0.57
2019-03-17T14:05:26.075Z,0.60
2019-03-17T14:08:14.283Z,0.40
2019-03-17T14:11:02.503Z,0.50
2019-03-17T14:13:50.989Z,0.40
2019-03-17T14:16:39.188Z,0.67
2019-03-17T14:19:27.431Z,0.70
2019-03-17T14:22:15.659Z,0.60
2019-03-17T14:24:44.807Z,0.40
2019-03-17T14:27:33.011Z,0.60
2019-03-17T14:30:21.231Z,0.50
2019-03-17T14:33:09.419Z,0.40
2019-03-17T14:35:57.910Z,0.50
2019-03-17T14:38:46.217Z,1.73
2019-03-17T14:41:34.805Z,1.43
2019-03-17T14:44:23.015Z,1.20
2019-03-17T14:47:11.292Z,1.10
2019-03-17T14:49:59.769Z,0.60
2019-03-17T14:52:48.000Z,1.37
2019-03-17T14:55:36.720Z,0.93
2019-03-17T14:58:25.206Z,0.70
2019-03-17T15:01:13.415Z,0.90
2019-03-17T15:04:01.648Z,0.60
2019-03-17T15:06:50.423Z,0.70
2019-03-17T15:09:38.609Z,1.73
2019-03-17T15:12:26.832Z,1.00
2019-03-17T15:15:15.336Z,0.70
2019-03-17T15:18:03.551Z,2.20
2019-03-17T15:20:51.764Z,1.00
2019-03-17T15:23:32.592Z,0.83
2019-03-17T15:26:13.547Z,0.80
2019-03-17T15:28:54.707Z,1.00
2019-03-17T15:31:35.816Z,1.97
2019-03-17T15:34:16.877Z,1.13
2019-03-17T15:36:58.180Z,0.53
2019-03-17T15:39:39.421Z,0.70
2019-03-17T15:42:20.266Z,1.00
2019-03-17T15:45:00.798Z,0.97
2019-03-17T15:47:41.471Z,1.23
2019-03-17T15:50:11.704Z,0.60
2019-03-17T15:53:00.232Z,1.27
2019-03-17T15:55:48.436Z,0.80
2019-03-17T15:58:36.656Z,0.63
2019-03-17T16:01:06.081Z,0.93
2019-03-17T16:03:54.300Z,0.70
2019-03-17T16:06:42.787Z,0.57
2019-03-17T16:09:31.260Z,0.90
2019-03-17T16:12:19.490Z,0.80
2019-03-17T16:15:08.291Z,0.60
2019-03-17T16:17:56.760Z,0.80
2019-03-17T16:20:45.209Z,0.63
2019-03-17T16:23:33.704Z,0.50
2019-03-17T16:26:21.963Z,3.53
2019-03-17T16:29:10.190Z,0.77
2019-03-17T16:31:51.328Z,1.40
2019-03-17T16:34:32.723Z,1.10
2019-03-17T16:37:02.114Z,0.50
2019-03-17T16:39:31.243Z,0.60
2019-03-17T16:42:01.200Z,0.73
2019-03-17T16:44:31.440Z,0.60
2019-03-17T16:47:00.606Z,0.80
2019-03-17T16:49:29.750Z,0.60
2019-03-17T16:51:59.167Z,0.93
2019-03-17T16:54:28.361Z,1.07
2019-03-17T16:56:57.814Z,0.47
2019-03-17T16:59:27.076Z,0.50
2019-03-17T17:01:57.283Z,0.50
2019-03-17T17:04:30.842Z,0.43
2019-03-17T17:06:59.955Z,1.00
2019-03-17T17:09:29.387Z,0.40
2019-03-17T17:11:58.519Z,0.40
2019-03-17T17:14:27.728Z,0.50
2019-03-17T17:16:57.209Z,0.60
2019-03-17T17:19:26.849Z,0.30
2019-03-17T17:21:58.774Z,0.50
2019-03-17T17:24:28.859Z,0.83
2019-03-17T17:26:58.084Z,3.10
2019-03-17T17:29:27.466Z,1.47
2019-03-17T17:31:56.568Z,0.67
2019-03-17T17:34:25.792Z,0.63
2019-03-17T17:36:55.266Z,0.80
2019-03-17T17:39:24.399Z,0.50
2019-03-17T17:41:53.780Z,0.70
2019-03-17T17:44:22.929Z,0.53
2019-03-17T17:46:52.026Z,0.43
2019-03-17T17:49:21.492Z,0.53
2019-03-17T17:51:50.598Z,0.80
2019-03-17T17:54:19.998Z,0.70
2019-03-17T17:56:50.659Z,0.43
2019-03-17T17:59:20.199Z,0.50
2019-03-17T18:01:50.124Z,0.50
2019-03-17T18:04:19.552Z,0.60
2019-03-17T18:06:48.690Z,0.40
2019-03-17T18:09:18.112Z,0.60
2019-03-17T18:11:47.304Z,0.70
2019-03-17T18:14:16.504Z,0.67
2019-03-17T18:16:45.975Z,0.70
2019-03-17T18:19:15.105Z,0.67
2019-03-17T18:21:44.236Z,0.97
2019-03-17T18:24:13.369Z,0.50
2019-03-17T18:26:42.507Z,0.97
2019-03-17T18:29:11.998Z,1.30
2019-03-17T18:31:41.211Z,1.20
2019-03-17T18:34:10.704Z,1.33
2019-03-17T18:36:39.951Z,0.93
2019-03-17T18:39:09.350Z,0.73
2019-03-17T18:41:38.815Z,0.83
2019-03-17T18:44:08.312Z,0.70
2019-03-17T18:46:37.425Z,0.70
2019-03-17T18:49:06.999Z,1.07
2019-03-17T18:51:36.738Z,0.80
2019-03-17T18:54:06.306Z,0.80
2019-03-17T18:56:35.480Z,0.93
2019-03-17T18:59:04.661Z,0.93
2019-03-17T19:01:34.403Z,1.00
2019-03-17T19:04:03.615Z,1.37
2019-03-17T19:06:32.840Z,1.93
2019-03-17T19:09:02.114Z,1.17
2019-03-17T19:11:31.302Z,1.13
2019-03-17T19:14:01.259Z,1.33
2019-03-17T19:16:30.515Z,1.03
2019-03-17T19:19:00.143Z,0.70
2019-03-17T19:21:29.736Z,0.60
2019-03-17T19:23:58.936Z,1.00
2019-03-17T19:26:28.208Z,1.17
2019-03-17T19:28:57.319Z,1.20
2019-03-17T19:31:26.742Z,1.00
2019-03-17T19:33:56.684Z,0.97
2019-03-17T19:36:25.778Z,1.10
2019-03-17T19:38:54.886Z,0.90
2019-03-17T19:41:24.005Z,1.20
2019-03-17T19:43:53.240Z,1.27
2019-03-17T19:46:22.676Z,1.30
2019-03-17T19:48:51.851Z,1.40
2019-03-17T19:51:20.955Z,0.90
2019-03-17T19:53:50.396Z,1.00
2019-03-17T19:56:20.191Z,1.17
2019-03-17T19:58:49.647Z,1.50
2019-03-17T20:01:18.807Z,1.33
2019-03-17T20:03:48.332Z,0.97
2019-03-17T20:06:17.774Z,1.40
2019-03-17T20:08:46.987Z,1.33
2019-03-17T20:11:16.238Z,1.13
2019-03-17T20:13:45.551Z,1.20
2019-03-17T20:16:14.744Z,1.60
2019-03-17T20:18:44.106Z,1.37
2019-03-17T20:21:13.746Z,1.03
2019-03-17T20:23:42.894Z,1.30
2019-03-17T20:26:12.314Z,1.80
2019-03-17T20:28:42.223Z,1.60
2019-03-17T20:31:11.533Z,1.53
2019-03-17T20:33:40.813Z,1.37
2019-03-17T20:36:10.305Z,1.23
2019-03-17T20:38:39.747Z,1.27
2019-03-17T20:41:08.912Z,1.20
2019-03-17T20:43:38.428Z,1.00
2019-03-17T20:46:07.650Z,1.63
2019-03-17T20:48:37.222Z,1.60
2019-03-17T20:51:06.342Z,1.50
2019-03-17T20:53:35.453Z,1.10
2019-03-17T20:56:04.662Z,0.80
2019-03-17T20:58:34.524Z,0.30
2019-03-17T21:01:03.640Z,0.20
2019-03-17T21:03:33.136Z,0.70
2019-03-17T21:06:02.272Z,0.43
2019-03-17T21:08:31.528Z,0.40
2019-03-17T21:11:00.880Z,0.50
2019-03-17T21:13:30.063Z,1.50
2019-03-17T21:15:59.284Z,0.53
2019-03-17T21:18:28.448Z,0.73
2019-03-17T21:20:57.579Z,0.80
2019-03-17T21:23:26.719Z,0.37
2019-03-17T21:25:56.131Z,0.37
2019-03-17T21:28:27.649Z,0.40
2019-03-17T21:30:56.765Z,0.50
2019-03-17T21:33:26.316Z,0.30
2019-03-17T21:35:55.718Z,0.30
2019-03-17T21:38:24.806Z,0.30
2019-03-17T21:41:06.531Z,0.50
2019-03-17T21:43:24.716Z,0.40
2019-03-17T21:45:53.835Z,0.50
2019-03-17T21:48:23.497Z,0.37
2019-03-17T21:50:52.890Z,0.47
2019-03-17T21:53:21.987Z,0.40
2019-03-17T21:55:54.001Z,0.60
2019-03-17T21:58:21.930Z,0.53
2019-03-17T22:00:51.070Z,0.50
2019-03-17T22:03:20.862Z,0.60
2019-03-17T22:05:49.948Z,0.60
2019-03-17T22:08:19.027Z,0.60
2019-03-17T22:10:48.170Z,0.53
2019-03-17T22:13:17.590Z,0.80
2019-03-17T22:15:47.023Z,0.80
2019-03-17T22:18:16.104Z,0.70
2019-03-17T22:20:45.504Z,1.00
2019-03-17T22:23:14.877Z,1.40
2019-03-17T22:25:44.335Z,0.87
2019-03-17T22:28:13.674Z,0.50
2019-03-17T22:30:42.806Z,0.70
2019-03-17T22:33:11.975Z,1.00
2019-03-17T22:35:41.444Z,1.10
2019-03-17T22:38:10.523Z,0.73
2019-03-17T22:40:58.989Z,0.40
2019-03-17T22:43:47.435Z,0.50
2019-03-17T22:46:35.887Z,0.50
2019-03-17T22:49:05.380Z,0.70
2019-03-17T22:51:53.599Z,0.60
2019-03-17T22:54:41.804Z,0.47
2019-03-17T22:57:30.035Z,0.40
2019-03-17T23:03:15.500Z,0.33
2019-03-17T23:06:03.922Z,0.77
2019-03-17T23:08:52.391Z,0.60
2019-03-17T23:11:40.618Z,0.40
2019-03-17T23:14:36.610Z,0.37
2019-03-17T23:17:19.412Z,0.50
2019-03-17T23:23:02.792Z,0.43
2019-03-17T23:25:51.309Z,0.40
2019-03-17T23:28:40.055Z,0.30
2019-03-17T23:31:28.451Z,0.50
2019-03-17T23:34:16.976Z,0.50
2019-03-17T23:37:05.170Z,0.37
2019-03-17T23:39:53.395Z,0.50
2019-03-17T23:42:41.666Z,0.63
2019-03-17T23:45:29.892Z,0.40
2019-03-17T23:47:59.007Z,0.40
2019-03-17T23:50:47.505Z,0.50
2019-03-17T23:53:16.715Z,0.53
2019-03-17T23:56:04.917Z,0.60
2019-03-17T23:58:53.423Z,0.63
